Flight Track Log - Related Links

Times and Time Zones

All times are in EDT time to prevent confusion due to time zone crossing. See the SKW5229 flight status page for this flight to view local times or setup timezone preferences in your user account.

Time Position Orientation Groundspeed Altitude Reporting Facility
EDT Latitude Longitude Course Direction KTS MPH feet Rate Location/Type
Fri 12:06:21 PM 25.9353 -97.3803 29° Northeast 224 258 2,400  Level Houston Center
Fri 12:07:14 PM 26.0019 -97.3786 North 250 288 4,100 2,452 Climbing Houston Center
Fri 12:08:16 PM 26.0800 -97.3831 357° North 277 319 7,100 2,688 Climbing Houston Center
Fri 12:09:00 PM 26.4306 -97.4167 North  Level FlightAware
Fri 12:09:19 PM 26.1672 -97.3853 359° North 290 334 9,700  Level Houston Center
Fri 12:10:00 PM 26.5368 -97.4167 North  Level FlightAware
Fri 12:10:21 PM 26.2533 -97.3889 358° North 306 352 12,000  Level Houston Center
Fri 12:11:23 PM 26.3331 -97.4467 327° Northwest 318 366 14,400 1,452 Climbing Houston Center
Fri 12:12:25 PM 26.4078 -97.5089 323° Northwest 333 383 15,000 581 Climbing Houston Center
Fri 12:13:27 PM 26.4997 -97.5783 326° Northwest 369 425 15,600 919 Climbing Houston Center
Fri 12:14:29 PM 26.6031 -97.5747 North 376 433 16,900 931 Climbing Houston Center
Fri 12:15:23 PM 26.6983 -97.5617 North 375 432 17,400 -1,161 Climbing Houston Center
Fri 12:16:33 PM 26.7967 -97.6022 340° North 373 429 14,500 -2,557 Descending Houston Center
Fri 12:17:25 PM 26.7986 -97.6911 271° West 346 398 12,200 -2,250 Descending Houston Center
Fri 12:18:25 PM 26.7286 -97.7639 223° Southwest 317 365 10,300 -1,835 Descending Houston Center
Fri 12:19:26 PM 26.6689 -97.8142 217° Southwest 263 303 8,500 -2,115 Descending Houston Center
Fri 12:20:27 PM 26.6108 -97.8617 216° Southwest 254 292 6,000 -2,459 Descending Houston Center
Fri 12:21:28 PM 26.5550 -97.9111 218° Southwest 257 296 3,500 -1,475 Descending Houston Center
Fri 12:22:29 PM 26.4969 -97.9583 216° Southwest 260 299 3,000 -689 Descending Houston Center
Fri 12:23:30 PM 26.4394 -98.0103 219° Southwest 251 289 2,100 -496 Descending Houston Center
Fri 12:24:30 PM 26.3872 -98.0547 217° Southwest 240 276 2,000 -47 Descending Houston Center
Fri 12:25:37 PM 26.3333 -98.1014 218° Southwest 231 266 2,000  Level Houston Center
Fri 12:26:38 PM 26.2975 -98.1597 236° Southwest 228 262 2,000  Level Houston Center
Fri 12:27:39 PM 26.2836 -98.2292 257° West 209 241 2,000 -310 Level Houston Center
Fri 12:28:34 PM 26.2489 -98.2569 216° Southwest 164 189 1,400 -592 Descending Houston Center
Fri 12:30:01 PM 26.1967 -98.2600 183° South 150 173 600 -552 Descending Houston Center
Fri 12:32:00 PM 26.3543 -98.1916 21° North  Level FlightAware
Fri 12:39:00 PM 26.8488 -97.8171 22° Northeast  Level Estimated
Fri 12:40:00 PM 26.9193 -97.7633 23° Northeast  Level Estimated
Fri 12:41:00 PM 27.0032 -97.7460 10° North  Level FlightAware
Fri 12:42:00 PM 27.0871 -97.7287 10° North  Level FlightAware
Fri 12:43:00 PM 27.1710 -97.7113 10° North  Level FlightAware
Fri 12:44:00 PM 27.2549 -97.6940 10° North  Level FlightAware
Fri 12:45:00 PM 27.3388 -97.6766 10° North  Level FlightAware
Fri 12:46:00 PM 27.4068 -97.6185 31° Northeast  Level Estimated
Fri 12:47:00 PM 27.4747 -97.5603 22° Northeast  Level Estimated
Fri 12:48:00 PM 27.5595 -97.5501 North  Level FlightAware
Fri 12:49:00 PM 27.6266 -97.4908 24° Northeast  Level Estimated
Fri 12:50:00 PM 27.7105 -97.4732 11° North  Level FlightAware
Fri 12:51:00 PM 27.7769 -97.4127 39° Northeast  Level Estimated
Fri 12:52:00 PM 27.8549 -97.3735 24° Northeast  Level FlightAware
Fri 12:53:00 PM 27.9328 -97.3343 24° Northeast  Level FlightAware
Fri 12:54:00 PM 27.9983 -97.2723 41° Northeast  Level Estimated
Fri 12:55:00 PM 28.0727 -97.2251 29° Northeast  Level FlightAware
Fri 12:56:00 PM 28.1377 -97.1625 38° Northeast  Level Estimated
Fri 12:57:00 PM 28.2095 -97.1102 33° Northeast  Level FlightAware
Fri 12:58:00 PM 28.2813 -97.0579 33° Northeast  Level FlightAware
Fri 12:59:00 PM 28.3457 -96.9944 33° Northeast  Level Estimated
Fri 01:00:00 PM 28.4101 -96.9308 61° Northeast  Level Estimated
Fri 01:01:00 PM 28.4580 -96.8505 56° Northeast  Level FlightAware
Fri 01:02:00 PM 28.5058 -96.7701 56° Northeast  Level FlightAware
Fri 01:03:00 PM 28.5536 -96.6897 56° Northeast  Level FlightAware
Fri 01:04:00 PM 28.6198 -96.6284 62° Northeast  Level Estimated
Fri 01:05:00 PM 28.6550 -96.5399 66° East  Level FlightAware
Fri 01:06:00 PM 28.6902 -96.4513 66° East  Level FlightAware
Fri 01:07:00 PM 28.7587 -96.3934 North  Level Estimated
Fri 01:08:00 PM 28.8273 -96.3354 12° North  Level Estimated
Fri 01:09:00 PM 28.9056 -96.2968 23° Northeast  Level FlightAware
Fri 01:10:00 PM 28.9733 -96.2375 North  Level Estimated
Fri 01:11:00 PM 29.0410 -96.1782 12° North  Level Estimated
Fri 01:12:00 PM 29.1087 -96.1188 North  Level Estimated
Fri 01:13:00 PM 29.1901 -96.1482 343° North  Level FlightAware
Fri 01:14:00 PM 29.2542 -96.0837 North  Level Estimated
Fri 01:15:00 PM 29.3183 -96.0192 10° North  Level Estimated
Fri 01:16:00 PM 29.3824 -95.9545 41° Northeast  Level Estimated
Fri 01:17:00 PM 29.4464 -95.8898 65° Northeast  Level Estimated
Fri 01:18:00 PM 29.5104 -95.8250 53° Northeast  Level Estimated
Fri 01:19:00 PM 29.5744 -95.7601 62° Northeast  Level Estimated
Fri 01:20:00 PM 29.6589 -95.7472 North  Level FlightAware
Fri 01:21:00 PM 29.7435 -95.7343 North  Level FlightAware
Fri 01:22:00 PM 29.7924 -95.6486 60° Northeast  Level FlightAware
Fri 01:23:00 PM 29.8352 -95.5635 55° Northeast  Level FlightAware
Fri 01:24:00 PM 29.8833 -95.4825 90° East  Level FlightAware
Fri 01:25:00 PM 29.9302 -95.4042 49° Northeast  Level FlightAware
Fri 01:26:00 PM 29.9833 -95.3333 49° Northeast  Level FlightAware
Fri 01:27:00 PM 29.9844 -95.3414 49° Northeast  Level Estimated
Fri 01:28:00 PM 29.9833 -95.3333 49° Northeast  Level FlightAware
Fri 01:29:00 PM 29.9844 -95.3414 49° Northeast  Level Estimated
Fri 01:30:00 PM 29.9833 -95.3333 49° Northeast  Level FlightAware
Fri 01:31:00 PM 29.9844 -95.3414 49° Northeast  Level Estimated
Fri 01:32:00 PM 29.9833 -95.3333 49° Northeast  Level FlightAware
Fri 01:33:00 PM 29.9844 -95.3414 49° Northeast  Level Estimated
Fri 01:34:00 PM 29.9833 -95.3333 49° Northeast  Level FlightAware
Fri 01:35:00 PM 29.9844 -95.3414 49° Northeast  Level Estimated

Login

Don't have an account? Register now (free) for customized features, flight alerts, and more!